Time;durP1;ratioP1;P1;durP2;ratioP2;P2;SDS_P1;SDS_P2;PMS_P1;PMS_P2;Temp;Humidity;BMP_temperature;BMP_pressure;BME280_temperature;BME280_humidity;BME280_pressure;Samples;Min_cycle;Max_cycle;Signal;HPM_P1;HPM_P2
2022/04/06 00:02:28;;;;;;;29.57;16.90;;;;;;;4.38;100.00;98264.84;7383311;19;20792;-47
2022/04/06 00:05:00;;;;;;;33.40;16.30;;;;;;;4.44;100.00;98258.22;7387962;19;20375;-47
2022/04/06 00:07:29;;;;;;;30.93;16.87;;;;;;;4.52;100.00;98252.44;7379057;19;21233;-51
2022/04/06 00:10:01;;;;;;;30.53;16.20;;;;;;;4.57;100.00;98248.31;7386189;19;20431;-49
2022/04/06 00:12:31;;;;;;;28.27;15.70;;;;;;;4.77;100.00;98236.03;7378419;19;20426;-46
2022/04/06 00:15:00;;;;;;;29.37;14.87;;;;;;;4.93;100.00;98236.44;7389049;19;20390;-47
2022/04/06 00:17:30;;;;;;;26.47;13.67;;;;;;;5.02;100.00;98223.00;7378132;19;20425;-53
2022/04/06 00:19:59;;;;;;;28.00;12.27;;;;;;;5.03;100.00;98202.56;7386679;19;20438;-48
2022/04/06 00:22:29;;;;;;;23.57;11.53;;;;;;;5.21;100.00;98201.28;7381934;19;20409;-50
2022/04/06 00:24:59;;;;;;;19.90;9.73;;;;;;;5.36;100.00;98188.84;7394947;19;20765;-50
2022/04/06 00:27:31;;;;;;;19.97;8.60;;;;;;;5.59;100.00;98172.25;7389783;19;21001;-49
2022/04/06 00:30:00;;;;;;;10.13;6.13;;;;;;;5.76;100.00;98164.91;7394474;19;20771;-52
2022/04/06 00:32:30;;;;;;;15.80;7.70;;;;;;;5.92;100.00;98160.94;7389350;19;20414;-45
2022/04/06 00:37:42;;;;;;;11.90;6.47;;;;;;;6.17;100.00;98266.41;7389163;19;20427;-52
2022/04/06 00:40:11;;;;;;;7.00;4.57;;;;;;;6.21;100.00;98283.56;7395390;19;20379;-51
2022/04/06 00:42:44;;;;;;;11.17;5.53;;;;;;;6.24;100.00;98281.06;7389533;19;20413;-51
2022/04/06 00:45:13;;;;;;;6.07;4.00;;;;;;;6.31;100.00;98276.94;7395919;19;20387;-51
2022/04/06 00:47:43;;;;;;;8.80;3.70;;;;;;;6.35;100.00;98256.50;7392125;19;20441;-49
2022/04/06 00:50:12;;;;;;;10.03;4.37;;;;;;;6.38;100.00;98257.41;7396361;19;20402;-50
2022/04/06 00:52:42;;;;;;;8.47;5.60;;;;;;;6.42;100.00;98246.38;7390539;19;20427;-52
2022/04/06 00:55:13;;;;;;;10.20;5.20;;;;;;;6.46;100.00;98235.38;7395865;19;20389;-50
2022/04/06 00:57:46;;;;;;;11.20;6.50;;;;;;;6.48;100.00;98241.38;7389940;19;20416;-51
2022/04/06 01:00:16;;;;;;;9.23;6.50;;;;;;;6.46;100.00;98240.50;7399504;19;20403;-49
2022/04/06 01:02:46;;;;;;;11.50;5.43;;;;;;;6.46;100.00;98245.63;7388550;19;20420;-48
2022/04/06 01:05:15;;;;;;;11.03;5.43;;;;;;;6.47;100.00;98242.22;7396422;19;20394;-51
2022/04/06 01:07:45;;;;;;;12.23;7.37;;;;;;;6.49;100.00;98240.53;7390183;19;20969;-51
2022/04/06 01:10:15;;;;;;;9.37;5.20;;;;;;;6.47;100.00;98244.78;7396591;19;20402;-52
2022/04/06 01:12:48;;;;;;;10.50;5.90;;;;;;;6.46;100.00;98243.91;7388079;19;20428;-46
2022/04/06 01:15:18;;;;;;;12.97;6.30;;;;;;;6.48;100.00;98251.63;7397423;19;20385;-49
2022/04/06 01:17:48;;;;;;;8.97;5.40;;;;;;;6.46;100.00;98249.03;7388956;19;20422;-48
2022/04/06 01:20:17;;;;;;;8.90;4.83;;;;;;;6.45;100.00;98254.97;7396656;19;20391;-48
2022/04/06 01:22:49;;;;;;;9.07;6.00;;;;;;;6.46;100.00;98251.59;7388194;19;20427;-48
2022/04/06 01:25:19;;;;;;;9.80;6.17;;;;;;;6.48;100.00;98252.47;7396733;19;20380;-47
2022/04/06 01:27:48;;;;;;;13.10;7.00;;;;;;;6.45;100.00;98266.91;7387954;19;20409;-46
2022/04/06 01:30:18;;;;;;;14.27;4.67;;;;;;;6.45;100.00;98261.78;7398187;19;20393;-50
2022/04/06 01:32:47;;;;;;;15.07;7.60;;;;;;;6.50;100.00;98260.19;7389119;19;20755;-50
2022/04/06 01:35:17;;;;;;;7.80;5.17;;;;;;;6.47;100.00;98255.03;7393448;19;20389;-49
2022/04/06 01:37:49;;;;;;;14.50;5.57;;;;;;;6.45;100.00;98254.97;7388481;19;20424;-50
2022/04/06 01:40:18;;;;;;;7.70;4.33;;;;;;;6.46;100.00;98249.03;7395598;19;20391;-51
2022/04/06 01:42:48;;;;;;;9.43;5.20;;;;;;;6.51;100.00;98245.69;7387066;19;20427;-48
2022/04/06 01:45:17;;;;;;;9.87;5.77;;;;;;;6.48;100.00;98247.34;7395867;19;20916;-52
2022/04/06 01:53:13;;;;;;;9.60;4.90;;;;;;;6.51;100.00;98277.28;7395341;19;20736;-49
2022/04/06 01:55:43;;;;;;;7.10;4.23;;;;;;;6.50;100.00;98267.88;7388782;19;20904;-50
2022/04/06 01:58:12;;;;;;;6.83;3.90;;;;;;;6.48;100.00;98269.53;7394509;19;20394;-51
2022/04/06 02:00:42;;;;;;;6.17;4.27;;;;;;;6.48;100.00;98269.53;7388775;19;20466;-51
2022/04/06 02:03:12;;;;;;;8.37;5.80;;;;;;;6.49;100.00;98261.03;7395729;19;20392;-46
2022/04/06 02:05:41;;;;;;;3.67;2.73;;;;;;;6.46;100.00;98261.81;7389186;19;20800;-48
2022/04/06 02:08:13;;;;;;;6.70;2.53;;;;;;;6.47;100.00;98270.38;7394024;19;20422;-47
2022/04/06 02:10:43;;;;;;;4.67;2.63;;;;;;;6.46;100.00;98264.38;7391106;19;20392;-47
2022/04/06 02:13:13;;;;;;;8.27;4.27;;;;;;;6.47;100.00;98263.56;7394789;19;20919;-47
2022/04/06 02:15:42;;;;;;;5.57;3.13;;;;;;;6.45;100.00;98272.91;7390868;19;20392;-49
2022/04/06 02:18:12;;;;;;;5.33;4.10;;;;;;;6.46;100.00;98254.16;7393715;19;20421;-50
2022/04/06 02:20:41;;;;;;;8.73;5.30;;;;;;;6.46;100.00;98250.75;7390007;19;20439;-51
2022/04/06 02:23:13;;;;;;;7.77;4.70;;;;;;;6.49;100.00;98250.78;7394756;19;20399;-52
2022/04/06 02:25:45;;;;;;;11.83;5.50;;;;;;;6.44;100.00;98242.13;7386708;19;20775;-51
2022/04/06 02:28:15;;;;;;;8.53;3.53;;;;;;;6.44;100.00;98248.13;7393820;19;20452;-47
2022/04/06 02:30:44;;;;;;;8.83;5.77;;;;;;;6.44;100.00;98242.13;7388391;19;20452;-49
2022/04/06 02:33:14;;;;;;;6.40;3.50;;;;;;;6.42;100.00;98238.69;7394484;19;20456;-52
2022/04/06 02:35:43;;;;;;;8.20;4.13;;;;;;;6.47;100.00;98226.84;7388867;19;20393;-48
2022/04/06 02:38:15;;;;;;;5.60;3.33;;;;;;;6.44;100.00;98225.09;7393138;19;20400;-53
2022/04/06 02:40:46;;;;;;;7.27;3.77;;;;;;;6.45;100.00;98228.50;7392543;19;20922;-49
2022/04/06 02:43:16;;;;;;;5.50;3.00;;;;;;;6.44;100.00;98232.78;7394379;19;20398;-48
2022/04/06 02:45:47;;;;;;;6.00;4.07;;;;;;;6.42;100.00;98221.63;7388279;19;20398;-45
2022/04/06 02:48:16;;;;;;;8.70;4.80;;;;;;;6.40;100.00;98236.09;7393156;19;20476;-50
2022/04/06 02:50:46;;;;;;;6.30;4.13;;;;;;;6.38;100.00;98236.91;7389371;19;20399;-47
2022/04/06 02:53:18;;;;;;;6.80;3.87;;;;;;;6.35;100.00;98233.47;7393968;19;20910;-47
2022/04/06 02:55:48;;;;;;;7.87;5.50;;;;;;;6.37;100.00;98225.81;7387754;19;20390;-49
2022/04/06 02:58:17;;;;;;;8.10;5.37;;;;;;;6.37;100.00;98227.50;7392803;19;20419;-51
2022/04/06 03:00:47;;;;;;;10.97;6.60;;;;;;;6.39;100.00;98233.50;7386983;19;20389;-48
2022/04/06 03:03:16;;;;;;;7.73;5.10;;;;;;;6.32;100.00;98228.28;7396044;19;20403;-48
2022/04/06 03:05:46;;;;;;;10.53;6.17;;;;;;;6.30;100.00;98250.44;7387954;19;20396;-47
2022/04/06 03:08:18;;;;;;;9.90;5.83;;;;;;;6.32;100.00;98243.63;7392272;19;20400;-49
2022/04/06 03:10:47;;;;;;;9.97;4.50;;;;;;;6.37;100.00;98250.56;7389101;19;20396;-51
2022/04/06 03:13:17;;;;;;;7.40;3.57;;;;;;;6.33;100.00;98258.19;7393357;19;20393;-49
2022/04/06 03:15:46;;;;;;;13.37;7.83;;;;;;;6.35;100.00;98246.28;7387063;19;20367;-48
2022/04/06 03:18:16;;;;;;;12.40;6.43;;;;;;;6.30;100.00;98265.81;7392181;19;20397;-51
2022/04/06 03:20:45;;;;;;;11.70;5.23;;;;;;;6.31;100.00;98271.81;7387559;19;20385;-49
2022/04/06 03:23:18;;;;;;;18.07;6.60;;;;;;;6.32;100.00;98270.97;7391236;19;20403;-51
2022/04/06 03:25:47;;;;;;;13.80;7.40;;;;;;;6.30;100.00;98270.09;7388224;19;20395;-45
2022/04/06 03:28:17;;;;;;;10.50;5.87;;;;;;;6.31;100.00;98277.78;7391777;19;20397;-47
2022/04/06 03:30:47;;;;;;;16.27;8.60;;;;;;;6.32;100.00;98279.50;7388648;19;20392;-47
2022/04/06 03:33:16;;;;;;;9.33;3.97;;;;;;;6.32;100.00;98282.06;7392966;19;20380;-48
2022/04/06 03:35:46;;;;;;;15.50;8.37;;;;;;;6.36;100.00;98275.28;7387010;19;20917;-45
2022/04/06 03:38:18;;;;;;;19.43;7.57;;;;;;;6.39;100.00;98264.25;7393001;19;20406;-47
2022/04/06 03:40:49;;;;;;;14.40;7.23;;;;;;;6.40;100.00;98266.84;7387528;19;20382;-47
2022/04/06 03:43:20;;;;;;;19.20;8.37;;;;;;;6.40;100.00;98261.72;7391160;19;20727;-49
2022/04/06 03:45:50;;;;;;;14.50;7.83;;;;;;;6.42;100.00;98249.78;7386860;19;20384;-51
2022/04/06 03:48:22;;;;;;;20.63;10.07;;;;;;;6.43;100.00;98237.84;7391720;19;20409;-51
2022/04/06 03:50:52;;;;;;;20.70;11.00;;;;;;;6.45;100.00;98246.41;7387849;19;20392;-48
2022/04/06 03:53:24;;;;;;;22.50;11.27;;;;;;;6.45;100.00;98239.63;7392449;19;20391;-46
2022/04/06 03:55:54;;;;;;;17.40;6.67;;;;;;;6.45;100.00;98228.50;7387882;19;21249;-50
2022/04/06 03:58:24;;;;;;;20.40;10.17;;;;;;;6.45;100.00;98225.94;7392610;19;20413;-46
2022/04/06 04:00:53;;;;;;;16.77;6.87;;;;;;;6.47;100.00;98224.28;7391739;19;20441;-50
2022/04/06 04:03:22;;;;;;;30.07;5.70;;;;;;;6.49;100.00;98214.91;7396810;19;20377;-46
2022/04/06 04:05:53;;;;;;;24.43;10.40;;;;;;;6.49;100.00;98220.03;7394562;19;20416;-51
2022/04/06 04:08:26;;;;;;;25.17;11.70;;;;;;;6.50;100.00;98216.63;7398060;19;20745;-49
2022/04/06 04:10:56;;;;;;;16.13;6.30;;;;;;;6.50;100.00;98218.34;7391027;19;20420;-46
2022/04/06 04:13:25;;;;;;;21.50;10.80;;;;;;;6.52;100.00;98209.84;7399936;19;20388;-50
2022/04/06 04:15:55;;;;;;;14.37;7.80;;;;;;;6.50;100.00;98215.78;7394864;19;20430;-46
2022/04/06 04:18:25;;;;;;;20.10;7.97;;;;;;;6.53;100.00;98206.44;7398272;19;20415;-52
2022/04/06 04:21:32;;;;;;;21.03;10.90;;;;;;;6.54;100.00;98194.50;7391316;19;21027;-48
2022/04/06 04:23:47;;;;;;;21.47;10.87;;;;;;;6.54;100.00;98191.94;7396384;19;20397;-50
2022/04/06 04:26:17;;;;;;;25.00;9.90;;;;;;;6.54;100.00;98186.81;7394308;19;20772;-47
2022/04/06 04:28:46;;;;;;;35.37;12.90;;;;;;;6.53;100.00;98185.97;7396894;19;20392;-50
2022/04/06 04:31:17;;;;;;;27.83;13.90;;;;;;;6.55;100.00;98184.28;7392091;19;20419;-51
2022/04/06 04:33:46;;;;;;;29.03;12.97;;;;;;;6.55;100.00;98174.03;7398946;19;20395;-48
2022/04/06 04:36:16;;;;;;;20.13;9.70;;;;;;;6.55;100.00;98189.41;7394335;19;20420;-51
2022/04/06 04:38:48;;;;;;;20.03;7.93;;;;;;;6.55;100.00;98184.28;7396928;19;20444;-50
2022/04/06 04:41:18;;;;;;;26.23;12.60;;;;;;;6.54;100.00;98187.69;7391594;19;20396;-52
2022/04/06 04:43:47;;;;;;;29.57;12.30;;;;;;;6.59;100.00;98177.50;7396137;19;20389;-48
2022/04/06 04:46:17;;;;;;;34.27;12.60;;;;;;;6.60;100.00;98184.34;7391507;19;20414;-52
2022/04/06 04:48:47;;;;;;;34.30;15.60;;;;;;;6.60;100.00;98182.66;7400078;19;20504;-50
2022/04/06 04:51:17;;;;;;;30.40;12.20;;;;;;;6.58;100.00;98179.22;7392429;19;20411;-49
2022/04/06 04:53:49;;;;;;;30.83;13.37;;;;;;;6.54;100.00;98182.56;7398051;19;20919;-51
2022/04/06 04:56:19;;;;;;;33.57;18.27;;;;;;;6.58;100.00;98184.34;7392172;19;20418;-49
2022/04/06 04:58:48;;;;;;;39.23;18.47;;;;;;;6.57;100.00;98179.19;7397495;19;20432;-51
2022/04/06 05:01:18;;;;;;;41.30;19.80;;;;;;;6.58;100.00;98189.47;7388267;19;20425;-48
2022/04/06 05:03:48;;;;;;;37.57;16.97;;;;;;;6.56;100.00;98195.41;7395548;19;20389;-52
2022/04/06 05:06:18;;;;;;;54.97;23.07;;;;;;;6.55;100.00;98197.09;7392662;19;20427;-48
2022/04/06 05:08:50;;;;;;;59.90;20.10;;;;;;;6.57;100.00;98197.97;7395211;19;20418;-49
2022/04/06 05:11:20;;;;;;;38.00;17.93;;;;;;;6.58;100.00;98196.28;7391495;19;20426;-52
2022/04/06 05:13:49;;;;;;;58.30;22.20;;;;;;;6.60;100.00;98213.41;7397480;19;20388;-48
2022/04/06 05:16:19;;;;;;;54.40;25.37;;;;;;;6.66;100.00;98207.50;7390530;19;20416;-50
2022/04/06 05:18:49;;;;;;;72.23;25.60;;;;;;;6.70;100.00;98208.41;7395475;19;20405;-51
2022/04/06 05:21:19;;;;;;;46.53;23.50;;;;;;;6.66;100.00;98212.63;7390357;19;20751;-53
2022/04/06 05:23:51;;;;;;;48.77;23.30;;;;;;;6.66;100.00;98210.06;7395289;19;20393;-45
2022/04/06 05:26:20;;;;;;;58.37;24.10;;;;;;;6.68;100.00;98215.22;7392059;19;20417;-47
2022/04/06 05:28:50;;;;;;;45.67;21.47;;;;;;;6.72;100.00;98211.88;7395662;19;20414;-49
2022/04/06 05:31:19;;;;;;;53.50;27.90;;;;;;;6.73;100.00;98221.28;7391404;19;20420;-50
2022/04/06 05:33:49;;;;;;;40.57;17.30;;;;;;;6.74;100.00;98208.53;7396812;19;20394;-47
2022/04/06 05:36:23;;;;;;;54.63;23.63;;;;;;;6.78;100.00;98199.19;7391186;19;20403;-50
2022/04/06 05:38:55;;;;;;;91.77;25.67;;;;;;;6.77;100.00;98197.44;7394932;19;20423;-48
2022/04/06 05:41:24;;;;;;;41.43;19.17;;;;;;;6.74;100.00;98195.72;7389129;19;20505;-52
2022/04/06 05:43:54;;;;;;;56.20;30.77;;;;;;;6.74;100.00;98202.50;7394635;19;20382;-49
2022/04/06 05:46:24;;;;;;;40.30;19.17;;;;;;;6.73;100.00;98200.78;7390225;19;20424;-52
2022/04/06 05:48:54;;;;;;;45.23;20.20;;;;;;;6.74;100.00;98195.72;7398754;19;20935;-50
2022/04/06 05:51:24;;;;;;;50.30;24.00;;;;;;;6.79;100.00;98207.72;7388624;19;20422;-48
2022/04/06 05:53:56;;;;;;;67.30;30.10;;;;;;;6.80;100.00;98194.94;7396130;19;20405;-47
2022/04/06 05:56:25;;;;;;;28.17;11.40;;;;;;;6.80;100.00;98199.19;7388839;19;20425;-51
2022/04/06 05:58:55;;;;;;;47.03;21.37;;;;;;;6.81;100.00;98191.53;7393780;19;20473;-49
2022/04/06 06:01:24;;;;;;;44.97;22.37;;;;;;;6.85;100.00;98182.19;7390037;19;20417;-46
2022/04/06 06:03:55;;;;;;;36.40;16.60;;;;;;;6.86;100.00;98194.16;7394397;19;20457;-51
2022/04/06 06:06:24;;;;;;;46.80;20.33;;;;;;;6.86;100.00;98191.59;7391114;19;20448;-53
2022/04/06 06:08:56;;;;;;;30.53;13.77;;;;;;;6.84;100.00;98190.72;7392342;19;20445;-49
2022/04/06 06:11:26;;;;;;;32.60;15.00;;;;;;;6.84;100.00;98176.22;7389471;19;20748;-50
2022/04/06 06:13:59;;;;;;;30.47;14.57;;;;;;;6.85;100.00;98170.25;7395618;19;20394;-50
2022/04/06 06:16:28;;;;;;;39.93;13.30;;;;;;;6.87;100.00;98165.97;7388537;19;20401;-49
2022/04/06 06:18:58;;;;;;;31.37;12.37;;;;;;;6.89;100.00;98160.88;7394245;19;20432;-54
2022/04/06 06:21:31;;;;;;;31.80;15.27;;;;;;;6.91;100.00;98163.47;7387373;19;20420;-50
2022/04/06 06:24:05;;;;;;;28.37;15.60;;;;;;;6.89;100.00;98155.75;7394043;19;20390;-50
2022/04/06 06:26:35;;;;;;;15.50;8.37;;;;;;;6.88;100.00;98152.31;7390326;19;20440;-53
2022/04/06 06:29:05;;;;;;;27.43;11.87;;;;;;;6.93;100.00;98149.84;7393347;19;20425;-52
2022/04/06 06:31:35;;;;;;;29.67;9.23;;;;;;;6.93;100.00;98146.41;7390020;19;20422;-53
2022/04/06 06:34:04;;;;;;;24.70;8.47;;;;;;;6.95;100.00;98139.59;7395155;19;20469;-52
2022/04/06 06:36:34;;;;;;;20.67;10.10;;;;;;;6.98;100.00;98147.34;7389586;19;20455;-53
2022/04/06 06:39:07;;;;;;;32.90;14.33;;;;;;;7.03;100.00;98140.59;7395692;19;20445;-50
2022/04/06 06:41:37;;;;;;;21.83;9.73;;;;;;;7.00;100.00;98135.41;7388794;19;20443;-51
2022/04/06 06:44:07;;;;;;;24.60;10.43;;;;;;;7.01;100.00;98132.88;7392988;19;20413;-52
2022/04/06 06:46:37;;;;;;;25.83;11.00;;;;;;;7.03;100.00;98130.34;7389476;19;20786;-49
2022/04/06 06:49:10;;;;;;;24.50;8.00;;;;;;;7.05;100.00;98126.06;7396219;19;20428;-50
2022/04/06 06:51:39;;;;;;;29.83;9.67;;;;;;;7.07;100.00;98131.22;7387133;19;20418;-49
2022/04/06 06:54:11;;;;;;;17.87;9.13;;;;;;;7.14;100.00;98127.91;7394038;19;20913;-50
2022/04/06 06:56:41;;;;;;;25.10;11.80;;;;;;;7.20;100.00;98122.88;7389201;19;20424;-48
2022/04/06 06:59:10;;;;;;;27.30;11.13;;;;;;;7.21;100.00;98116.88;7392106;19;20419;-48
2022/04/06 07:01:40;;;;;;;17.10;8.53;;;;;;;7.24;100.00;98123.75;7384814;19;20440;-49
2022/04/06 07:04:15;;;;;;;19.43;7.10;;;;;;;7.32;100.00;98117.03;7393083;19;20753;-48
2022/04/06 07:06:44;;;;;;;28.17;9.67;;;;;;;7.34;100.00;98115.31;7383758;19;20398;-50
2022/04/06 07:09:16;;;;;;;30.00;11.20;;;;;;;7.41;100.00;98112.00;7393263;19;20451;-51
2022/04/06 07:11:46;;;;;;;27.97;12.27;;;;;;;7.50;100.00;98115.53;7388192;19;20425;-49
2022/04/06 07:14:15;;;;;;;39.13;14.40;;;;;;;7.53;100.00;98115.53;7393718;19;20390;-51
2022/04/06 07:16:45;;;;;;;28.93;12.80;;;;;;;7.55;100.00;98104.47;7387366;19;20424;-49
2022/04/06 07:19:15;;;;;;;33.20;13.70;;;;;;;7.56;100.00;98097.63;7395653;19;20426;-49
2022/04/06 07:21:44;;;;;;;27.50;11.80;;;;;;;7.63;100.00;98096.84;7387911;19;20446;-49
2022/04/06 07:24:17;;;;;;;15.83;9.27;;;;;;;7.67;100.00;98092.63;7392582;19;20470;-48
2022/04/06 07:26:47;;;;;;;10.50;6.30;;;;;;;7.62;100.00;98092.56;7386326;19;20767;-53
2022/04/06 07:29:17;;;;;;;24.87;12.13;;;;;;;7.66;100.00;98088.34;7390821;19;20429;-49
2022/04/06 07:31:46;;;;;;;19.73;8.33;;;;;;;7.66;100.00;98088.34;7386440;19;20422;-51
2022/04/06 07:34:16;;;;;;;24.03;8.90;;;;;;;7.64;100.00;98078.03;7390621;19;20914;-49
2022/04/06 07:36:45;;;;;;;33.33;11.57;;;;;;;7.67;100.00;98082.34;7386565;19;20454;-48
2022/04/06 07:39:17;;;;;;;28.83;13.53;;;;;;;7.70;100.00;98077.25;7391125;19;20757;-50
2022/04/06 07:41:47;;;;;;;45.27;18.40;;;;;;;7.64;100.00;98067.78;7385505;19;20940;-50
2022/04/06 07:44:16;;;;;;;43.77;14.90;;;;;;;7.70;100.00;98069.56;7391995;19;20384;-50
2022/04/06 07:46:46;;;;;;;31.77;12.53;;;;;;;7.65;100.00;98072.06;7384629;19;20430;-52
2022/04/06 07:49:15;;;;;;;22.73;12.00;;;;;;;7.59;100.00;98066.88;7390682;19;20424;-54
2022/04/06 07:51:46;;;;;;;19.23;8.30;;;;;;;7.59;100.00;98074.56;7388606;19;20447;-51
2022/04/06 07:54:18;;;;;;;19.67;10.00;;;;;;;7.60;100.00;98060.03;7392645;19;20400;-54
2022/04/06 07:56:48;;;;;;;22.77;12.73;;;;;;;7.62;100.00;98054.06;7385270;19;20762;-52
2022/04/06 07:59:17;;;;;;;25.40;10.70;;;;;;;7.62;100.00;98059.22;7390593;19;20411;-53
2022/04/06 08:01:47;;;;;;;18.83;10.93;;;;;;;7.64;100.00;98062.66;7385774;19;20423;-51
2022/04/06 08:04:17;;;;;;;19.80;8.70;;;;;;;7.63;100.00;98068.63;7391705;19;20376;-50
2022/04/06 08:06:46;;;;;;;19.57;8.47;;;;;;;7.62;100.00;98077.19;7387329;19;20451;-57
2022/04/06 08:09:18;;;;;;;21.47;11.70;;;;;;;7.63;100.00;98065.22;7389514;19;20439;-54
2022/04/06 08:11:48;;;;;;;15.80;8.30;;;;;;;7.65;100.00;98058.38;7385196;19;20970;-54
2022/04/06 08:14:17;;;;;;;20.40;11.20;;;;;;;7.68;100.00;98059.28;7395297;19;20397;-52
2022/04/06 08:16:47;;;;;;;25.93;11.67;;;;;;;7.71;100.00;98061.00;7386111;19;20422;-53
2022/04/06 08:19:17;;;;;;;20.37;10.07;;;;;;;7.75;100.00;98064.47;7390144;19;20784;-54
2022/04/06 08:21:46;;;;;;;22.73;10.33;;;;;;;7.75;100.00;98065.31;7384003;19;20502;-54
2022/04/06 08:24:19;;;;;;;16.43;8.50;;;;;;;7.76;100.00;98056.78;7390524;19;20439;-54
2022/04/06 08:26:48;;;;;;;17.70;8.10;;;;;;;7.77;100.00;98058.50;7382252;19;20409;-54
2022/04/06 08:29:18;;;;;;;21.17;10.43;;;;;;;7.76;100.00;98043.97;7388110;19;20423;-56
2022/04/06 08:31:48;;;;;;;11.07;5.53;;;;;;;7.80;100.00;98058.53;7382555;19;20425;-51
2022/04/06 08:34:20;;;;;;;18.67;9.77;;;;;;;7.80;100.00;98058.53;7388013;19;20391;-53
2022/04/06 08:36:50;;;;;;;16.53;7.13;;;;;;;7.82;100.00;98056.84;7379907;19;20445;-53
2022/04/06 08:39:22;;;;;;;18.53;8.80;;;;;;;7.84;100.00;98069.69;7387862;19;20434;-53
2022/04/06 08:41:56;;;;;;;16.20;6.77;;;;;;;7.83;100.00;98067.97;7383604;19;20422;-50
2022/04/06 08:44:41;;;;;;;19.70;8.13;;;;;;;7.83;100.00;98067.97;7391309;19;20391;-50
2022/04/06 08:47:11;;;;;;;18.23;10.03;;;;;;;7.86;100.00;98069.72;7389609;19;20430;-52
2022/04/06 08:49:43;;;;;;;30.37;12.80;;;;;;;7.84;100.00;98060.28;7394247;19;20407;-54
2022/04/06 08:52:13;;;;;;;18.93;9.73;;;;;;;7.83;100.00;98060.25;7391032;19;20754;-50
2022/04/06 08:54:46;;;;;;;19.80;8.97;;;;;;;7.83;100.00;98075.66;7396934;19;20463;-52
2022/04/06 08:57:15;;;;;;;22.30;9.60;;;;;;;7.80;100.00;98079.06;7390683;19;20417;-56
2022/04/06 08:59:45;;;;;;;16.43;8.83;;;;;;;7.79;100.00;98081.63;7392407;19;20426;-51
2022/04/06 09:02:19;;;;;;;16.23;6.70;;;;;;;7.75;100.00;98065.31;7389168;19;20425;-54
2022/04/06 09:04:53;;;;;;;11.20;5.80;;;;;;;7.76;100.00;98055.91;7399358;19;20486;-56
2022/04/06 09:07:24;;;;;;;11.60;7.50;;;;;;;7.77;100.00;98066.22;7389005;19;20434;-53
2022/04/06 09:09:57;;;;;;;18.37;7.80;;;;;;;7.78;100.00;98061.91;7391094;19;20443;-50
2022/04/06 09:12:28;;;;;;;17.00;7.27;;;;;;;7.80;100.00;98055.13;7395125;19;20984;-56
2022/04/06 09:15:09;;;;;;;19.80;9.27;;;;;;;7.77;100.00;98055.06;7399558;19;20388;-54
2022/04/06 09:17:46;;;;;;;13.83;8.63;;;;;;;7.74;100.00;98062.75;7387009;19;20437;-54
2022/04/06 09:20:17;;;;;;;23.30;9.87;;;;;;;7.69;100.00;98061.00;7397348;19;20843;-54
2022/04/06 09:22:49;;;;;;;27.03;11.33;;;;;;;7.67;100.00;98057.56;7391966;19;20772;-55
2022/04/06 09:25:22;;;;;;;21.63;8.90;;;;;;;7.64;100.00;98061.81;7392945;19;20413;-51
2022/04/06 09:27:51;;;;;;;21.40;11.00;;;;;;;7.60;100.00;98063.47;7390845;19;20442;-55
2022/04/06 09:30:21;;;;;;;13.70;7.47;;;;;;;7.52;100.00;98059.94;7396373;19;20385;-51
2022/04/06 09:32:50;;;;;;;18.03;8.13;;;;;;;7.45;100.00;98050.47;7386562;19;20464;-51
2022/04/06 09:35:28;;;;;;;12.73;7.43;;;;;;;7.39;100.00;98051.28;7396996;19;20779;-51
2022/04/06 09:38:14;;;;;;;27.40;11.73;;;;;;;7.39;100.00;98051.28;7394661;19;20489;-54
2022/04/06 09:40:46;;;;;;;17.87;6.07;;;;;;;7.28;100.00;98058.84;7391743;19;20397;-52
2022/04/06 09:43:29;;;;;;;19.17;7.97;;;;;;;7.23;100.00;98047.66;7396661;19;20458;-51
2022/04/06 09:49:01;;;;;;;19.10;8.73;;;;;;;7.20;100.00;98045.06;7395144;19;20422;-50
2022/04/06 09:51:31;;;;;;;38.47;22.17;;;;;;;7.18;100.00;98026.22;7389223;19;20426;-55
2022/04/06 09:54:02;;;;;;;26.37;10.73;;;;;;;7.14;100.00;98035.59;7396162;19;20382;-54
2022/04/06 09:56:36;;;;;;;28.07;9.43;;;;;;;7.10;100.00;98021.88;7384976;19;20415;-55
2022/04/06 09:59:10;;;;;;;14.80;9.47;;;;;;;7.11;100.00;98018.47;7393853;19;20445;-52
2022/04/06 10:01:42;;;;;;;20.87;12.37;;;;;;;7.19;100.00;98010.00;7384592;19;20461;-54
2022/04/06 10:04:14;;;;;;;20.40;12.20;;;;;;;7.15;100.00;97999.72;7395871;19;20394;-55
2022/04/06 10:06:44;;;;;;;20.77;12.47;;;;;;;7.16;100.00;97993.75;7385971;19;20416;-50
2022/04/06 10:09:15;;;;;;;17.83;10.47;;;;;;;7.20;100.00;98001.47;7392978;19;20434;-52
2022/04/06 10:11:47;;;;;;;26.90;10.77;;;;;;;7.22;100.00;97998.06;7389334;19;20403;-51
2022/04/06 10:14:17;;;;;;;15.33;7.97;;;;;;;7.21;100.00;98000.59;7399401;19;20398;-50
2022/04/06 10:16:47;;;;;;;22.60;12.00;;;;;;;7.25;100.00;97997.25;7389671;19;20432;-52
2022/04/06 10:19:17;;;;;;;15.80;8.37;;;;;;;7.24;100.00;97992.97;7397252;19;20426;-49
2022/04/06 10:21:53;;;;;;;13.30;6.93;;;;;;;7.18;100.00;97995.47;7367772;19;20496;-54
2022/04/06 10:24:31;;;;;;;15.50;8.20;;;;;;;7.20;100.00;98007.47;7395016;19;20478;-51
2022/04/06 10:27:17;;;;;;;14.80;7.40;;;;;;;7.19;100.00;97992.03;7388743;19;20416;-53
2022/04/06 10:30:10;;;;;;;15.10;8.00;;;;;;;7.13;100.00;98001.38;7392649;19;20440;-50
2022/04/06 10:32:41;;;;;;;13.10;6.67;;;;;;;7.21;100.00;97992.91;7388255;19;20432;-54
2022/04/06 10:35:28;;;;;;;15.23;6.33;;;;;;;7.14;100.00;97999.69;7397259;19;20400;-51
2022/04/06 10:38:16;;;;;;;23.20;9.50;;;;;;;7.21;100.00;97995.47;7387447;19;20416;-50
2022/04/06 10:41:04;;;;;;;42.53;18.57;;;;;;;7.24;100.00;97991.25;7389496;19;20390;-55
2022/04/06 10:43:55;;;;;;;29.73;12.77;;;;;;;7.34;100.00;97981.09;7394123;19;20373;-56
2022/04/06 10:46:38;;;;;;;47.27;23.03;;;;;;;7.29;100.00;97986.19;7386411;19;20843;-56
2022/04/06 10:49:15;;;;;;;59.53;27.17;;;;;;;7.31;100.00;97992.19;7389881;19;20553;-54
2022/04/06 10:51:56;;;;;;;14.00;9.00;;;;;;;7.25;100.00;97986.97;7391440;19;20410;-53
2022/04/06 10:54:52;;;;;;;12.67;6.93;;;;;;;7.26;100.00;97984.44;7394288;19;20398;-53
2022/04/06 10:57:22;;;;;;;23.33;10.50;;;;;;;7.18;100.00;97990.34;7385887;19;20962;-56
2022/04/06 11:00:16;;;;;;;28.63;13.77;;;;;;;7.16;100.00;97992.88;7391457;19;20747;-51
2022/04/06 11:02:51;;;;;;;43.87;19.53;;;;;;;7.18;100.00;97986.03;7386541;19;20810;-54
2022/04/06 11:05:47;;;;;;;20.60;9.53;;;;;;;7.18;100.00;97983.47;7393664;19;20385;-52
2022/04/06 11:11:47;;;;;;;32.37;14.20;;;;;;;7.34;100.00;97969.13;7387118;19;20418;-51
2022/04/06 11:14:31;;;;;;;11.53;6.47;;;;;;;7.42;100.00;97954.69;7393676;19;20397;-51
2022/04/06 11:17:03;;;;;;;11.53;7.37;;;;;;;7.37;100.00;97978.53;7387349;19;20416;-53
2022/04/06 11:19:33;;;;;;;28.77;13.40;;;;;;;7.43;100.00;97969.22;7395830;19;20424;-50
2022/04/06 11:22:04;;;;;;;22.73;9.60;;;;;;;7.47;100.00;97982.06;7385154;19;20418;-52
2022/04/06 11:24:34;;;;;;;48.83;21.80;;;;;;;7.50;100.00;97961.59;7393932;19;20386;-55
2022/04/06 11:27:03;;;;;;;28.63;11.50;;;;;;;7.54;100.00;97973.59;7385787;19;20950;-50
2022/04/06 11:29:33;;;;;;;26.00;9.60;;;;;;;7.53;100.00;97977.00;7391214;19;20496;-53
2022/04/06 11:32:06;;;;;;;30.00;12.40;;;;;;;7.56;100.00;97971.91;7386421;19;20424;-49
2022/04/06 11:34:38;;;;;;;43.53;19.40;;;;;;;7.65;100.00;97966.84;7393059;19;20386;-52
2022/04/06 11:37:09;;;;;;;13.10;8.57;;;;;;;7.67;100.00;97983.13;7385018;19;20418;-49
2022/04/06 11:39:39;;;;;;;13.40;7.20;;;;;;;7.72;100.00;97984.84;7390689;19;20424;-54
2022/04/06 11:42:09;;;;;;;16.57;7.57;;;;;;;7.78;100.00;97979.78;7385593;19;20445;-51
2022/04/06 11:44:38;;;;;;;22.83;11.53;;;;;;;7.80;100.00;97990.94;7392778;19;20384;-52
2022/04/06 11:47:10;;;;;;;36.43;13.10;;;;;;;7.84;100.00;97992.66;7387104;19;20465;-55
2022/04/06 11:49:40;;;;;;;16.73;9.03;;;;;;;7.83;100.00;97990.94;7390436;19;20431;-52
2022/04/06 11:52:10;;;;;;;15.70;7.73;;;;;;;7.86;100.00;98000.38;7387195;19;20407;-53
2022/04/06 11:54:39;;;;;;;19.30;11.87;;;;;;;7.86;100.00;97990.13;7392338;19;20390;-55
2022/04/06 11:57:09;;;;;;;32.07;15.53;;;;;;;7.83;100.00;97993.53;7386724;19;20433;-54